Ratliff City, Oklahoma
Current Conditions -  °F | °C
As of 5:55 PM on Saturday 22 Nov 2014 (Local Time) from KPVJ Reporting Station
Moderate Rain Moderate Rain  
Wind Chill: 55°   Ceiling: 3100
Heat Index: 55°   Visibility: 7mi
Dew Point: 54°   Wind: 5mph
Humidity: 97%   Direction: 130°SE
Pressure: 29.88"   Gusts: NA
Location:  34.45°N, 97.51°W
Report Text: KPVJ 222355Z AUTO 13004KT 7SM RA SCT004 BKN031 OVC046 13/12 A2988 RMK AO2 LTG DSNT SE P0025 60087 T01260122 10132 20122
Loading
Personal Weather Stations






























Interactive Weather Map New forecast layout! Learn more

10-Day Weather Forecast

Advertisements
Track Severe Weather on mobile